sensor_id;sensor_type;location;lat;lon;timestamp;P1;durP1;ratioP1;P2;durP2;ratioP2
71730;SDS011;65964;43.496;3.710;2023-06-22T00:00:46;32.67;;;9.07;;
71730;SDS011;65964;43.496;3.710;2023-06-22T00:03:12;34.63;;;9.13;;
71730;SDS011;65964;43.496;3.710;2023-06-22T00:05:38;30.02;;;8.57;;
71730;SDS011;65964;43.496;3.710;2023-06-22T00:08:04;27.88;;;8.63;;
71730;SDS011;65964;43.496;3.710;2023-06-22T00:10:30;31.85;;;8.75;;
71730;SDS011;65964;43.496;3.710;2023-06-22T00:12:56;32.95;;;8.82;;
71730;SDS011;65964;43.496;3.710;2023-06-22T00:15:22;34.97;;;8.85;;
71730;SDS011;65964;43.496;3.710;2023-06-22T00:17:49;28.20;;;9.02;;
71730;SDS011;65964;43.496;3.710;2023-06-22T00:20:15;40.08;;;9.77;;
71730;SDS011;65964;43.496;3.710;2023-06-22T00:22:43;32.33;;;8.95;;
71730;SDS011;65964;43.496;3.710;2023-06-22T00:25:09;34.67;;;9.77;;
71730;SDS011;65964;43.496;3.710;2023-06-22T00:27:35;30.10;;;8.65;;
71730;SDS011;65964;43.496;3.710;2023-06-22T00:30:01;31.25;;;8.80;;
71730;SDS011;65964;43.496;3.710;2023-06-22T00:32:27;34.97;;;8.73;;
71730;SDS011;65964;43.496;3.710;2023-06-22T00:34:53;31.77;;;9.18;;
71730;SDS011;65964;43.496;3.710;2023-06-22T00:37:19;30.73;;;9.15;;
71730;SDS011;65964;43.496;3.710;2023-06-22T00:39:53;27.40;;;8.50;;
71730;SDS011;65964;43.496;3.710;2023-06-22T00:42:20;34.10;;;8.77;;
71730;SDS011;65964;43.496;3.710;2023-06-22T00:44:46;34.45;;;9.57;;
71730;SDS011;65964;43.496;3.710;2023-06-22T00:47:15;31.77;;;9.13;;
71730;SDS011;65964;43.496;3.710;2023-06-22T00:49:42;29.63;;;9.52;;
71730;SDS011;65964;43.496;3.710;2023-06-22T00:52:08;32.28;;;8.70;;
71730;SDS011;65964;43.496;3.710;2023-06-22T00:54:42;31.70;;;9.80;;
71730;SDS011;65964;43.496;3.710;2023-06-22T00:57:12;33.35;;;8.73;;
71730;SDS011;65964;43.496;3.710;2023-06-22T00:59:42;32.60;;;9.35;;
71730;SDS011;65964;43.496;3.710;2023-06-22T01:02:08;34.15;;;9.52;;
71730;SDS011;65964;43.496;3.710;2023-06-22T01:04:35;39.88;;;9.73;;
71730;SDS011;65964;43.496;3.710;2023-06-22T01:09:57;32.85;;;8.70;;
71730;SDS011;65964;43.496;3.710;2023-06-22T01:12:25;32.88;;;8.70;;
71730;SDS011;65964;43.496;3.710;2023-06-22T01:14:58;36.53;;;9.50;;
71730;SDS011;65964;43.496;3.710;2023-06-22T01:17:26;34.38;;;8.60;;
71730;SDS011;65964;43.496;3.710;2023-06-22T01:19:54;33.67;;;9.65;;
71730;SDS011;65964;43.496;3.710;2023-06-22T01:22:21;32.50;;;9.30;;
71730;SDS011;65964;43.496;3.710;2023-06-22T01:27:36;31.88;;;9.02;;
71730;SDS011;65964;43.496;3.710;2023-06-22T01:30:10;35.85;;;9.68;;
71730;SDS011;65964;43.496;3.710;2023-06-22T01:32:37;33.88;;;9.18;;
71730;SDS011;65964;43.496;3.710;2023-06-22T01:35:05;31.88;;;8.65;;
71730;SDS011;65964;43.496;3.710;2023-06-22T01:37:32;32.65;;;10.43;;
71730;SDS011;65964;43.496;3.710;2023-06-22T01:39:59;37.03;;;10.38;;
71730;SDS011;65964;43.496;3.710;2023-06-22T01:42:26;36.00;;;9.40;;
71730;SDS011;65964;43.496;3.710;2023-06-22T01:44:52;30.60;;;9.13;;
71730;SDS011;65964;43.496;3.710;2023-06-22T01:47:20;35.80;;;9.77;;
71730;SDS011;65964;43.496;3.710;2023-06-22T01:49:46;34.20;;;10.55;;
71730;SDS011;65964;43.496;3.710;2023-06-22T01:52:12;43.50;;;9.95;;
71730;SDS011;65964;43.496;3.710;2023-06-22T01:54:39;29.77;;;9.18;;
71730;SDS011;65964;43.496;3.710;2023-06-22T01:57:05;38.60;;;9.32;;
71730;SDS011;65964;43.496;3.710;2023-06-22T01:59:32;37.00;;;9.50;;
71730;SDS011;65964;43.496;3.710;2023-06-22T02:02:01;33.28;;;9.48;;
71730;SDS011;65964;43.496;3.710;2023-06-22T02:04:29;39.60;;;10.05;;
71730;SDS011;65964;43.496;3.710;2023-06-22T02:06:58;31.15;;;9.23;;
71730;SDS011;65964;43.496;3.710;2023-06-22T02:09:25;33.30;;;9.63;;
71730;SDS011;65964;43.496;3.710;2023-06-22T02:11:54;36.80;;;9.05;;
71730;SDS011;65964;43.496;3.710;2023-06-22T02:14:22;29.63;;;9.70;;
71730;SDS011;65964;43.496;3.710;2023-06-22T02:16:49;33.08;;;10.43;;
71730;SDS011;65964;43.496;3.710;2023-06-22T02:19:16;35.78;;;9.93;;
71730;SDS011;65964;43.496;3.710;2023-06-22T02:21:44;36.67;;;10.10;;
71730;SDS011;65964;43.496;3.710;2023-06-22T02:24:10;39.75;;;10.15;;
71730;SDS011;65964;43.496;3.710;2023-06-22T02:26:36;35.80;;;10.63;;
71730;SDS011;65964;43.496;3.710;2023-06-22T02:29:03;36.90;;;10.43;;
71730;SDS011;65964;43.496;3.710;2023-06-22T02:31:29;36.67;;;9.77;;
71730;SDS011;65964;43.496;3.710;2023-06-22T02:33:56;35.40;;;9.90;;
71730;SDS011;65964;43.496;3.710;2023-06-22T02:36:23;31.98;;;9.70;;
71730;SDS011;65964;43.496;3.710;2023-06-22T02:38:50;36.10;;;10.45;;
71730;SDS011;65964;43.496;3.710;2023-06-22T02:41:16;32.42;;;9.90;;
71730;SDS011;65964;43.496;3.710;2023-06-22T02:43:47;38.50;;;9.63;;
71730;SDS011;65964;43.496;3.710;2023-06-22T02:46:13;39.50;;;10.07;;
71730;SDS011;65964;43.496;3.710;2023-06-22T02:48:40;30.08;;;9.27;;
71730;SDS011;65964;43.496;3.710;2023-06-22T02:51:06;33.03;;;9.27;;
71730;SDS011;65964;43.496;3.710;2023-06-22T02:53:32;35.75;;;10.02;;
71730;SDS011;65964;43.496;3.710;2023-06-22T02:55:58;34.05;;;9.02;;
71730;SDS011;65964;43.496;3.710;2023-06-22T02:58:26;34.13;;;10.18;;
71730;SDS011;65964;43.496;3.710;2023-06-22T03:00:52;32.88;;;9.57;;
71730;SDS011;65964;43.496;3.710;2023-06-22T03:03:18;31.05;;;9.10;;
71730;SDS011;65964;43.496;3.710;2023-06-22T03:05:44;35.17;;;9.38;;
71730;SDS011;65964;43.496;3.710;2023-06-22T03:08:11;33.92;;;9.70;;
71730;SDS011;65964;43.496;3.710;2023-06-22T03:10:37;34.70;;;9.18;;
71730;SDS011;65964;43.496;3.710;2023-06-22T03:13:04;41.10;;;9.77;;
71730;SDS011;65964;43.496;3.710;2023-06-22T03:15:30;45.42;;;10.48;;
71730;SDS011;65964;43.496;3.710;2023-06-22T03:17:57;37.90;;;9.85;;
71730;SDS011;65964;43.496;3.710;2023-06-22T03:20:23;34.72;;;9.68;;
71730;SDS011;65964;43.496;3.710;2023-06-22T03:22:51;34.80;;;10.23;;
71730;SDS011;65964;43.496;3.710;2023-06-22T03:25:18;32.63;;;8.93;;
71730;SDS011;65964;43.496;3.710;2023-06-22T03:27:44;31.67;;;9.45;;
71730;SDS011;65964;43.496;3.710;2023-06-22T03:30:11;34.30;;;9.70;;
71730;SDS011;65964;43.496;3.710;2023-06-22T03:32:37;30.48;;;8.63;;
71730;SDS011;65964;43.496;3.710;2023-06-22T03:35:03;37.25;;;9.77;;
71730;SDS011;65964;43.496;3.710;2023-06-22T03:37:31;38.78;;;10.70;;
71730;SDS011;65964;43.496;3.710;2023-06-22T03:39:57;35.33;;;9.70;;
71730;SDS011;65964;43.496;3.710;2023-06-22T03:42:23;38.05;;;9.85;;
71730;SDS011;65964;43.496;3.710;2023-06-22T03:44:49;35.70;;;9.85;;
71730;SDS011;65964;43.496;3.710;2023-06-22T03:47:15;30.40;;;8.80;;
71730;SDS011;65964;43.496;3.710;2023-06-22T03:49:41;28.20;;;8.65;;
71730;SDS011;65964;43.496;3.710;2023-06-22T03:52:07;30.77;;;9.23;;
71730;SDS011;65964;43.496;3.710;2023-06-22T03:54:33;39.78;;;9.18;;
71730;SDS011;65964;43.496;3.710;2023-06-22T03:56:59;29.98;;;9.50;;
71730;SDS011;65964;43.496;3.710;2023-06-22T03:59:25;28.60;;;9.13;;
71730;SDS011;65964;43.496;3.710;2023-06-22T04:01:51;35.42;;;10.15;;
71730;SDS011;65964;43.496;3.710;2023-06-22T04:04:18;37.70;;;10.30;;
71730;SDS011;65964;43.496;3.710;2023-06-22T04:06:44;36.63;;;9.85;;
71730;SDS011;65964;43.496;3.710;2023-06-22T04:09:10;35.03;;;9.57;;
71730;SDS011;65964;43.496;3.710;2023-06-22T04:11:36;31.02;;;8.80;;
71730;SDS011;65964;43.496;3.710;2023-06-22T04:14:02;26.42;;;8.75;;
71730;SDS011;65964;43.496;3.710;2023-06-22T04:16:28;31.15;;;9.05;;
71730;SDS011;65964;43.496;3.710;2023-06-22T04:18:54;39.65;;;9.93;;
71730;SDS011;65964;43.496;3.710;2023-06-22T04:21:20;34.50;;;8.82;;
71730;SDS011;65964;43.496;3.710;2023-06-22T04:23:46;29.95;;;8.55;;
71730;SDS011;65964;43.496;3.710;2023-06-22T04:26:12;31.75;;;8.88;;
71730;SDS011;65964;43.496;3.710;2023-06-22T04:28:42;36.13;;;9.48;;
71730;SDS011;65964;43.496;3.710;2023-06-22T04:31:08;32.25;;;9.32;;
71730;SDS011;65964;43.496;3.710;2023-06-22T04:33:34;30.55;;;9.23;;
71730;SDS011;65964;43.496;3.710;2023-06-22T04:36:00;41.08;;;9.32;;
71730;SDS011;65964;43.496;3.710;2023-06-22T04:38:26;30.90;;;8.68;;
71730;SDS011;65964;43.496;3.710;2023-06-22T04:40:52;35.60;;;9.55;;
71730;SDS011;65964;43.496;3.710;2023-06-22T04:43:18;39.92;;;10.25;;
71730;SDS011;65964;43.496;3.710;2023-06-22T04:45:44;33.08;;;9.10;;
71730;SDS011;65964;43.496;3.710;2023-06-22T04:48:10;34.15;;;9.60;;
71730;SDS011;65964;43.496;3.710;2023-06-22T04:50:41;30.30;;;8.95;;
71730;SDS011;65964;43.496;3.710;2023-06-22T04:53:07;35.58;;;9.38;;
71730;SDS011;65964;43.496;3.710;2023-06-22T04:55:34;36.67;;;9.43;;
71730;SDS011;65964;43.496;3.710;2023-06-22T04:58:03;33.42;;;9.32;;
71730;SDS011;65964;43.496;3.710;2023-06-22T05:00:32;30.75;;;8.60;;
71730;SDS011;65964;43.496;3.710;2023-06-22T05:03:01;30.45;;;9.43;;
71730;SDS011;65964;43.496;3.710;2023-06-22T05:05:28;32.90;;;8.82;;
71730;SDS011;65964;43.496;3.710;2023-06-22T05:07:56;40.28;;;10.15;;
71730;SDS011;65964;43.496;3.710;2023-06-22T05:10:25;40.00;;;9.80;;
71730;SDS011;65964;43.496;3.710;2023-06-22T05:12:51;33.85;;;9.40;;
71730;SDS011;65964;43.496;3.710;2023-06-22T05:15:17;38.92;;;9.77;;
71730;SDS011;65964;43.496;3.710;2023-06-22T05:17:44;35.50;;;9.18;;
71730;SDS011;65964;43.496;3.710;2023-06-22T05:20:13;34.75;;;9.68;;
71730;SDS011;65964;43.496;3.710;2023-06-22T05:22:43;37.33;;;10.13;;
71730;SDS011;65964;43.496;3.710;2023-06-22T05:25:10;43.33;;;9.18;;
71730;SDS011;65964;43.496;3.710;2023-06-22T05:27:36;38.65;;;10.80;;
71730;SDS011;65964;43.496;3.710;2023-06-22T05:30:08;28.88;;;9.30;;
71730;SDS011;65964;43.496;3.710;2023-06-22T05:32:35;36.88;;;9.95;;
71730;SDS011;65964;43.496;3.710;2023-06-22T05:35:02;36.17;;;9.73;;
71730;SDS011;65964;43.496;3.710;2023-06-22T05:37:28;32.00;;;9.35;;
71730;SDS011;65964;43.496;3.710;2023-06-22T05:39:54;39.33;;;13.32;;
71730;SDS011;65964;43.496;3.710;2023-06-22T05:42:22;51.30;;;19.60;;
71730;SDS011;65964;43.496;3.710;2023-06-22T05:44:48;39.85;;;11.00;;
71730;SDS011;65964;43.496;3.710;2023-06-22T05:47:14;28.80;;;9.52;;
71730;SDS011;65964;43.496;3.710;2023-06-22T05:49:40;39.10;;;10.45;;
71730;SDS011;65964;43.496;3.710;2023-06-22T05:52:06;29.88;;;9.25;;
71730;SDS011;65964;43.496;3.710;2023-06-22T05:54:32;29.95;;;9.15;;
71730;SDS011;65964;43.496;3.710;2023-06-22T05:56:58;38.00;;;10.27;;
71730;SDS011;65964;43.496;3.710;2023-06-22T05:59:24;37.22;;;9.57;;
71730;SDS011;65964;43.496;3.710;2023-06-22T06:01:50;33.50;;;8.85;;
71730;SDS011;65964;43.496;3.710;2023-06-22T06:04:17;37.28;;;9.77;;
71730;SDS011;65964;43.496;3.710;2023-06-22T06:06:43;30.85;;;9.32;;
71730;SDS011;65964;43.496;3.710;2023-06-22T06:09:09;27.73;;;8.93;;
71730;SDS011;65964;43.496;3.710;2023-06-22T06:11:36;38.85;;;9.80;;
71730;SDS011;65964;43.496;3.710;2023-06-22T06:14:02;35.20;;;8.88;;
71730;SDS011;65964;43.496;3.710;2023-06-22T06:16:28;32.00;;;9.18;;
71730;SDS011;65964;43.496;3.710;2023-06-22T06:18:54;35.95;;;9.50;;
71730;SDS011;65964;43.496;3.710;2023-06-22T06:21:21;28.02;;;8.27;;
71730;SDS011;65964;43.496;3.710;2023-06-22T06:23:47;37.88;;;9.77;;
71730;SDS011;65964;43.496;3.710;2023-06-22T06:26:13;35.38;;;8.50;;
71730;SDS011;65964;43.496;3.710;2023-06-22T06:28:41;37.83;;;10.52;;
71730;SDS011;65964;43.496;3.710;2023-06-22T06:31:07;34.45;;;9.32;;
71730;SDS011;65964;43.496;3.710;2023-06-22T06:33:34;29.63;;;9.10;;
71730;SDS011;65964;43.496;3.710;2023-06-22T06:36:00;32.05;;;9.43;;
71730;SDS011;65964;43.496;3.710;2023-06-22T06:38:27;35.75;;;9.45;;
71730;SDS011;65964;43.496;3.710;2023-06-22T06:40:53;39.55;;;9.95;;
71730;SDS011;65964;43.496;3.710;2023-06-22T06:43:19;33.83;;;9.38;;
71730;SDS011;65964;43.496;3.710;2023-06-22T06:45:45;35.35;;;8.52;;
71730;SDS011;65964;43.496;3.710;2023-06-22T06:48:11;34.28;;;8.82;;
71730;SDS011;65964;43.496;3.710;2023-06-22T06:50:37;36.50;;;8.65;;
71730;SDS011;65964;43.496;3.710;2023-06-22T06:53:03;27.25;;;8.32;;
71730;SDS011;65964;43.496;3.710;2023-06-22T06:55:30;34.13;;;9.40;;
71730;SDS011;65964;43.496;3.710;2023-06-22T06:57:58;46.97;;;10.23;;
71730;SDS011;65964;43.496;3.710;2023-06-22T07:00:24;35.65;;;9.65;;
71730;SDS011;65964;43.496;3.710;2023-06-22T07:02:51;28.08;;;8.20;;
71730;SDS011;65964;43.496;3.710;2023-06-22T07:05:17;36.28;;;8.82;;
71730;SDS011;65964;43.496;3.710;2023-06-22T07:07:43;32.45;;;8.90;;
71730;SDS011;65964;43.496;3.710;2023-06-22T07:10:09;32.13;;;8.95;;
71730;SDS011;65964;43.496;3.710;2023-06-22T07:12:36;31.92;;;8.70;;
71730;SDS011;65964;43.496;3.710;2023-06-22T07:15:05;33.55;;;8.45;;
71730;SDS011;65964;43.496;3.710;2023-06-22T07:17:37;38.95;;;8.77;;
71730;SDS011;65964;43.496;3.710;2023-06-22T07:20:07;32.63;;;8.13;;
71730;SDS011;65964;43.496;3.710;2023-06-22T07:22:39;32.22;;;8.40;;
71730;SDS011;65964;43.496;3.710;2023-06-22T07:25:06;26.33;;;7.63;;
71730;SDS011;65964;43.496;3.710;2023-06-22T07:27:39;32.03;;;8.95;;
71730;SDS011;65964;43.496;3.710;2023-06-22T07:30:09;28.25;;;7.60;;
71730;SDS011;65964;43.496;3.710;2023-06-22T07:32:35;32.22;;;8.80;;
71730;SDS011;65964;43.496;3.710;2023-06-22T07:35:01;29.88;;;8.07;;
71730;SDS011;65964;43.496;3.710;2023-06-22T07:37:28;32.13;;;8.10;;
71730;SDS011;65964;43.496;3.710;2023-06-22T07:39:54;34.50;;;8.50;;
71730;SDS011;65964;43.496;3.710;2023-06-22T07:42:24;33.63;;;8.98;;
71730;SDS011;65964;43.496;3.710;2023-06-22T07:44:50;26.40;;;7.80;;
71730;SDS011;65964;43.496;3.710;2023-06-22T07:47:16;30.15;;;8.48;;
71730;SDS011;65964;43.496;3.710;2023-06-22T07:49:50;30.27;;;8.73;;
71730;SDS011;65964;43.496;3.710;2023-06-22T07:52:16;31.98;;;8.77;;
71730;SDS011;65964;43.496;3.710;2023-06-22T07:54:42;31.77;;;8.75;;
71730;SDS011;65964;43.496;3.710;2023-06-22T07:57:08;32.03;;;8.88;;
71730;SDS011;65964;43.496;3.710;2023-06-22T07:59:34;33.00;;;9.02;;
71730;SDS011;65964;43.496;3.710;2023-06-22T08:02:00;36.08;;;8.95;;
71730;SDS011;65964;43.496;3.710;2023-06-22T08:04:28;38.03;;;9.07;;
71730;SDS011;65964;43.496;3.710;2023-06-22T08:06:55;34.83;;;8.32;;
71730;SDS011;65964;43.496;3.710;2023-06-22T08:09:22;31.55;;;8.23;;
71730;SDS011;65964;43.496;3.710;2023-06-22T08:11:48;34.38;;;8.32;;
71730;SDS011;65964;43.496;3.710;2023-06-22T08:14:14;32.85;;;8.90;;
71730;SDS011;65964;43.496;3.710;2023-06-22T08:16:41;32.47;;;7.88;;
71730;SDS011;65964;43.496;3.710;2023-06-22T08:19:07;26.05;;;7.32;;
71730;SDS011;65964;43.496;3.710;2023-06-22T08:21:33;32.30;;;8.20;;
71730;SDS011;65964;43.496;3.710;2023-06-22T08:23:59;26.45;;;8.15;;
71730;SDS011;65964;43.496;3.710;2023-06-22T08:26:25;29.60;;;8.07;;
71730;SDS011;65964;43.496;3.710;2023-06-22T08:28:51;22.38;;;7.25;;
71730;SDS011;65964;43.496;3.710;2023-06-22T08:31:17;23.20;;;7.25;;
71730;SDS011;65964;43.496;3.710;2023-06-22T08:33:43;21.42;;;6.95;;
71730;SDS011;65964;43.496;3.710;2023-06-22T08:36:11;21.00;;;6.82;;
71730;SDS011;65964;43.496;3.710;2023-06-22T08:38:38;29.80;;;8.73;;
71730;SDS011;65964;43.496;3.710;2023-06-22T08:41:04;30.00;;;7.75;;
71730;SDS011;65964;43.496;3.710;2023-06-22T08:43:30;30.15;;;8.57;;
71730;SDS011;65964;43.496;3.710;2023-06-22T08:45:56;39.25;;;9.18;;
71730;SDS011;65964;43.496;3.710;2023-06-22T08:48:22;30.85;;;8.07;;
71730;SDS011;65964;43.496;3.710;2023-06-22T08:50:48;28.80;;;8.40;;
71730;SDS011;65964;43.496;3.710;2023-06-22T08:53:14;31.02;;;8.75;;
71730;SDS011;65964;43.496;3.710;2023-06-22T08:55:40;32.63;;;8.70;;
71730;SDS011;65964;43.496;3.710;2023-06-22T08:58:06;30.95;;;8.57;;
71730;SDS011;65964;43.496;3.710;2023-06-22T09:00:32;35.40;;;8.10;;
71730;SDS011;65964;43.496;3.710;2023-06-22T09:02:59;32.90;;;9.32;;
71730;SDS011;65964;43.496;3.710;2023-06-22T09:05:25;32.60;;;8.45;;
71730;SDS011;65964;43.496;3.710;2023-06-22T09:07:51;35.40;;;9.18;;
71730;SDS011;65964;43.496;3.710;2023-06-22T09:10:19;33.35;;;8.98;;
71730;SDS011;65964;43.496;3.710;2023-06-22T09:12:45;40.08;;;9.35;;
71730;SDS011;65964;43.496;3.710;2023-06-22T09:15:11;30.88;;;8.65;;
71730;SDS011;65964;43.496;3.710;2023-06-22T09:17:38;26.30;;;8.13;;
71730;SDS011;65964;43.496;3.710;2023-06-22T09:20:04;28.50;;;8.30;;
71730;SDS011;65964;43.496;3.710;2023-06-22T09:22:31;30.63;;;9.48;;
71730;SDS011;65964;43.496;3.710;2023-06-22T09:24:58;34.50;;;9.70;;
71730;SDS011;65964;43.496;3.710;2023-06-22T09:27:25;26.75;;;8.32;;
71730;SDS011;65964;43.496;3.710;2023-06-22T09:29:51;33.92;;;9.18;;
71730;SDS011;65964;43.496;3.710;2023-06-22T09:32:17;26.73;;;8.43;;
71730;SDS011;65964;43.496;3.710;2023-06-22T09:34:43;29.77;;;8.95;;
71730;SDS011;65964;43.496;3.710;2023-06-22T09:37:09;27.98;;;8.07;;
71730;SDS011;65964;43.496;3.710;2023-06-22T09:39:35;23.25;;;8.18;;
71730;SDS011;65964;43.496;3.710;2023-06-22T09:42:01;28.35;;;7.90;;
71730;SDS011;65964;43.496;3.710;2023-06-22T09:44:28;20.50;;;6.82;;
71730;SDS011;65964;43.496;3.710;2023-06-22T09:46:54;13.50;;;5.70;;
71730;SDS011;65964;43.496;3.710;2023-06-22T09:49:20;17.58;;;6.13;;
71730;SDS011;65964;43.496;3.710;2023-06-22T09:51:46;14.52;;;6.45;;
71730;SDS011;65964;43.496;3.710;2023-06-22T09:54:12;16.40;;;6.03;;
71730;SDS011;65964;43.496;3.710;2023-06-22T09:56:38;16.33;;;6.82;;
71730;SDS011;65964;43.496;3.710;2023-06-22T09:59:04;17.38;;;6.93;;
71730;SDS011;65964;43.496;3.710;2023-06-22T10:01:30;20.17;;;7.35;;
71730;SDS011;65964;43.496;3.710;2023-06-22T10:03:56;18.60;;;7.03;;
71730;SDS011;65964;43.496;3.710;2023-06-22T10:06:22;20.15;;;6.95;;
71730;SDS011;65964;43.496;3.710;2023-06-22T10:08:50;19.98;;;7.63;;
71730;SDS011;65964;43.496;3.710;2023-06-22T10:11:16;21.05;;;7.20;;
71730;SDS011;65964;43.496;3.710;2023-06-22T10:13:42;19.08;;;6.32;;
71730;SDS011;65964;43.496;3.710;2023-06-22T10:16:08;23.73;;;7.28;;
71730;SDS011;65964;43.496;3.710;2023-06-22T10:18:34;23.45;;;7.82;;
71730;SDS011;65964;43.496;3.710;2023-06-22T10:21:00;18.35;;;7.47;;
71730;SDS011;65964;43.496;3.710;2023-06-22T10:23:26;20.65;;;7.70;;
71730;SDS011;65964;43.496;3.710;2023-06-22T10:25:52;19.63;;;7.53;;
71730;SDS011;65964;43.496;3.710;2023-06-22T10:28:18;20.73;;;7.78;;
71730;SDS011;65964;43.496;3.710;2023-06-22T10:30:44;11.45;;;5.25;;
71730;SDS011;65964;43.496;3.710;2023-06-22T10:33:11;11.02;;;4.28;;
71730;SDS011;65964;43.496;3.710;2023-06-22T10:35:37;11.05;;;4.45;;
71730;SDS011;65964;43.496;3.710;2023-06-22T10:38:03;12.10;;;4.20;;
71730;SDS011;65964;43.496;3.710;2023-06-22T10:40:30;9.88;;;4.15;;
71730;SDS011;65964;43.496;3.710;2023-06-22T10:42:56;8.80;;;3.88;;
71730;SDS011;65964;43.496;3.710;2023-06-22T10:45:22;8.68;;;3.90;;
71730;SDS011;65964;43.496;3.710;2023-06-22T10:47:48;11.80;;;4.63;;
71730;SDS011;65964;43.496;3.710;2023-06-22T10:50:14;18.23;;;5.90;;
71730;SDS011;65964;43.496;3.710;2023-06-22T10:52:40;13.50;;;4.88;;
71730;SDS011;65964;43.496;3.710;2023-06-22T10:55:07;20.73;;;6.95;;
71730;SDS011;65964;43.496;3.710;2023-06-22T10:57:33;24.65;;;7.57;;
71730;SDS011;65964;43.496;3.710;2023-06-22T10:59:59;21.85;;;7.63;;
71730;SDS011;65964;43.496;3.710;2023-06-22T11:02:25;154.68;;;13.68;;
71730;SDS011;65964;43.496;3.710;2023-06-22T11:04:53;19.90;;;8.35;;
71730;SDS011;65964;43.496;3.710;2023-06-22T11:07:19;13.88;;;7.25;;
71730;SDS011;65964;43.496;3.710;2023-06-22T11:09:45;11.68;;;5.68;;
71730;SDS011;65964;43.496;3.710;2023-06-22T11:12:11;10.35;;;6.18;;
71730;SDS011;65964;43.496;3.710;2023-06-22T11:14:38;10.50;;;5.60;;
71730;SDS011;65964;43.496;3.710;2023-06-22T11:17:04;12.40;;;5.85;;
71730;SDS011;65964;43.496;3.710;2023-06-22T11:19:30;14.65;;;6.40;;
71730;SDS011;65964;43.496;3.710;2023-06-22T11:21:56;15.60;;;6.82;;
71730;SDS011;65964;43.496;3.710;2023-06-22T11:24:22;11.10;;;6.28;;
71730;SDS011;65964;43.496;3.710;2023-06-22T11:26:48;13.98;;;6.72;;
71730;SDS011;65964;43.496;3.710;2023-06-22T11:29:14;15.02;;;7.40;;
71730;SDS011;65964;43.496;3.710;2023-06-22T11:31:40;15.07;;;7.95;;
71730;SDS011;65964;43.496;3.710;2023-06-22T11:34:08;16.35;;;7.45;;
71730;SDS011;65964;43.496;3.710;2023-06-22T11:36:34;11.18;;;6.85;;
71730;SDS011;65964;43.496;3.710;2023-06-22T11:39:00;12.55;;;6.97;;
71730;SDS011;65964;43.496;3.710;2023-06-22T11:41:26;13.02;;;7.57;;
71730;SDS011;65964;43.496;3.710;2023-06-22T11:43:52;14.05;;;7.28;;
71730;SDS011;65964;43.496;3.710;2023-06-22T11:46:18;12.43;;;6.60;;
71730;SDS011;65964;43.496;3.710;2023-06-22T11:48:44;13.70;;;6.68;;
71730;SDS011;65964;43.496;3.710;2023-06-22T11:51:10;11.50;;;6.45;;
71730;SDS011;65964;43.496;3.710;2023-06-22T11:53:37;10.57;;;6.07;;
71730;SDS011;65964;43.496;3.710;2023-06-22T11:56:03;9.77;;;5.97;;
71730;SDS011;65964;43.496;3.710;2023-06-22T11:58:29;9.70;;;5.93;;
71730;SDS011;65964;43.496;3.710;2023-06-22T12:00:55;15.70;;;6.60;;
71730;SDS011;65964;43.496;3.710;2023-06-22T12:03:21;11.00;;;5.47;;
71730;SDS011;65964;43.496;3.710;2023-06-22T12:05:47;14.05;;;5.68;;
71730;SDS011;65964;43.496;3.710;2023-06-22T12:08:13;11.85;;;5.43;;
71730;SDS011;65964;43.496;3.710;2023-06-22T12:10:39;18.30;;;6.75;;
71730;SDS011;65964;43.496;3.710;2023-06-22T12:13:05;19.85;;;6.93;;
71730;SDS011;65964;43.496;3.710;2023-06-22T12:15:31;15.40;;;6.05;;
71730;SDS011;65964;43.496;3.710;2023-06-22T12:17:57;11.75;;;5.28;;
71730;SDS011;65964;43.496;3.710;2023-06-22T12:20:23;12.02;;;5.35;;
71730;SDS011;65964;43.496;3.710;2023-06-22T12:22:49;13.20;;;5.70;;
71730;SDS011;65964;43.496;3.710;2023-06-22T12:25:17;11.65;;;5.18;;
71730;SDS011;65964;43.496;3.710;2023-06-22T12:27:43;15.15;;;5.50;;
71730;SDS011;65964;43.496;3.710;2023-06-22T12:30:09;10.23;;;4.82;;
71730;SDS011;65964;43.496;3.710;2023-06-22T12:32:35;16.00;;;5.72;;
71730;SDS011;65964;43.496;3.710;2023-06-22T12:35:01;11.82;;;5.35;;
71730;SDS011;65964;43.496;3.710;2023-06-22T12:37:27;12.60;;;5.90;;
71730;SDS011;65964;43.496;3.710;2023-06-22T12:39:54;13.60;;;5.38;;
71730;SDS011;65964;43.496;3.710;2023-06-22T12:42:20;27.80;;;6.97;;
71730;SDS011;65964;43.496;3.710;2023-06-22T12:44:46;10.73;;;4.97;;
71730;SDS011;65964;43.496;3.710;2023-06-22T12:47:12;9.93;;;5.10;;
71730;SDS011;65964;43.496;3.710;2023-06-22T12:49:39;14.25;;;5.43;;
71730;SDS011;65964;43.496;3.710;2023-06-22T12:52:10;10.43;;;4.90;;
71730;SDS011;65964;43.496;3.710;2023-06-22T12:54:37;12.60;;;4.82;;
71730;SDS011;65964;43.496;3.710;2023-06-22T12:57:03;7.53;;;4.78;;
71730;SDS011;65964;43.496;3.710;2023-06-22T12:59:29;11.55;;;5.10;;
71730;SDS011;65964;43.496;3.710;2023-06-22T13:01:55;8.80;;;5.18;;
71730;SDS011;65964;43.496;3.710;2023-06-22T13:04:21;10.57;;;6.10;;
71730;SDS011;65964;43.496;3.710;2023-06-22T13:06:47;12.45;;;8.00;;
71730;SDS011;65964;43.496;3.710;2023-06-22T13:09:14;11.20;;;5.22;;
71730;SDS011;65964;43.496;3.710;2023-06-22T13:11:40;13.43;;;7.82;;
71730;SDS011;65964;43.496;3.710;2023-06-22T13:14:06;13.23;;;5.30;;
71730;SDS011;65964;43.496;3.710;2023-06-22T13:16:33;7.22;;;4.40;;
71730;SDS011;65964;43.496;3.710;2023-06-22T13:18:59;7.95;;;4.30;;
71730;SDS011;65964;43.496;3.710;2023-06-22T13:21:25;11.95;;;5.30;;
71730;SDS011;65964;43.496;3.710;2023-06-22T13:23:51;7.28;;;4.45;;
71730;SDS011;65964;43.496;3.710;2023-06-22T13:26:17;11.90;;;4.93;;
71730;SDS011;65964;43.496;3.710;2023-06-22T13:28:43;11.48;;;4.85;;
71730;SDS011;65964;43.496;3.710;2023-06-22T13:31:09;12.13;;;5.18;;
71730;SDS011;65964;43.496;3.710;2023-06-22T13:33:35;11.43;;;5.32;;
71730;SDS011;65964;43.496;3.710;2023-06-22T13:36:03;12.00;;;4.82;;
71730;SDS011;65964;43.496;3.710;2023-06-22T13:38:31;12.00;;;4.50;;
71730;SDS011;65964;43.496;3.710;2023-06-22T13:40:57;6.55;;;3.50;;
71730;SDS011;65964;43.496;3.710;2023-06-22T13:43:24;12.57;;;4.03;;
71730;SDS011;65964;43.496;3.710;2023-06-22T13:45:50;7.65;;;2.95;;
71730;SDS011;65964;43.496;3.710;2023-06-22T13:48:16;7.53;;;3.08;;
71730;SDS011;65964;43.496;3.710;2023-06-22T13:50:43;8.40;;;3.13;;
71730;SDS011;65964;43.496;3.710;2023-06-22T13:53:09;5.70;;;2.55;;
71730;SDS011;65964;43.496;3.710;2023-06-22T13:55:35;6.72;;;2.90;;
71730;SDS011;65964;43.496;3.710;2023-06-22T13:58:01;6.78;;;3.05;;
71730;SDS011;65964;43.496;3.710;2023-06-22T14:00:27;5.75;;;2.58;;
71730;SDS011;65964;43.496;3.710;2023-06-22T14:02:53;6.15;;;2.90;;
71730;SDS011;65964;43.496;3.710;2023-06-22T14:05:19;10.95;;;3.45;;
71730;SDS011;65964;43.496;3.710;2023-06-22T14:07:45;5.32;;;2.60;;
71730;SDS011;65964;43.496;3.710;2023-06-22T14:10:12;4.85;;;2.90;;
71730;SDS011;65964;43.496;3.710;2023-06-22T14:12:38;9.70;;;3.05;;
71730;SDS011;65964;43.496;3.710;2023-06-22T14:15:04;8.10;;;2.90;;
71730;SDS011;65964;43.496;3.710;2023-06-22T14:17:30;7.93;;;2.95;;
71730;SDS011;65964;43.496;3.710;2023-06-22T14:19:56;6.40;;;2.40;;
71730;SDS011;65964;43.496;3.710;2023-06-22T14:22:22;10.55;;;3.08;;
71730;SDS011;65964;43.496;3.710;2023-06-22T14:24:48;6.55;;;2.60;;
71730;SDS011;65964;43.496;3.710;2023-06-22T14:27:15;10.70;;;3.47;;
71730;SDS011;65964;43.496;3.710;2023-06-22T14:29:41;10.98;;;2.95;;
71730;SDS011;65964;43.496;3.710;2023-06-22T14:32:08;4.07;;;2.35;;
71730;SDS011;65964;43.496;3.710;2023-06-22T14:34:34;5.68;;;2.83;;